Time;durP1;ratioP1;P1;durP2;ratioP2;P2;SDS_P1;SDS_P2;PMS_P1;PMS_P2;Temp;Humidity;BMP_temperature;BMP_pressure;BME280_temperature;BME280_humidity;BME280_pressure;Samples;Min_cycle;Max_cycle;Signal;HPM_P1;HPM_P2
2022/08/09 00:00:00;;;;;;;;;;;;;;;22.26;29.96;97873.47;5014240;28;943;-77
2022/08/09 00:02:26;;;;;;;;;;;;;;;21.98;30.19;97871.50;4997865;28;917;-77
2022/08/09 00:04:52;;;;;;;;;;;;;;;22.03;30.34;97876.63;4975415;28;928;-77
2022/08/09 00:07:17;;;;;;;;;;;;;;;22.02;30.32;97870.16;4975294;28;1049;-77
2022/08/09 00:09:42;;;;;;;;;;;;;;;22.07;30.45;97872.44;4936475;29;936;-77
2022/08/09 00:12:08;;;;;;;;;;;;;;;22.20;30.26;97868.84;4880329;29;1096;-77
2022/08/09 00:14:34;;;;;;;;;;;;;;;22.26;30.24;97862.16;4879924;29;1986;-77
2022/08/09 00:16:59;;;;;;;;;;;;;;;22.13;30.27;97869.06;4880143;29;1028;-77
2022/08/09 00:19:25;;;;;;;;;;;;;;;21.93;30.69;97863.56;4880466;29;953;-77
2022/08/09 00:21:50;;;;;;;;;;;;;;;22.12;30.57;97862.59;4880370;29;1334;-77
2022/08/09 00:24:15;;;;;;;;;;;;;;;22.24;30.26;97861.81;4879753;29;999;-77
2022/08/09 00:26:41;;;;;;;;;;;;;;;21.89;30.73;97866.50;4879636;29;1396;-77
2022/08/09 00:29:07;;;;;;;;;;;;;;;22.27;30.34;97858.06;4842767;29;1446;-77
2022/08/09 00:31:32;;;;;;;;;;;;;;;22.16;30.13;97857.59;4842750;29;1262;-77
2022/08/09 00:33:58;;;;;;;;;;;;;;;22.09;30.54;97860.63;4842910;29;1990;-77
2022/08/09 00:36:23;;;;;;;;;;;;;;;22.08;30.32;97853.41;4869225;29;1075;-77
2022/08/09 00:38:49;;;;;;;;;;;;;;;22.23;30.02;97857.41;4861482;29;952;-77
2022/08/09 00:41:14;;;;;;;;;;;;;;;21.89;30.90;97862.88;4861169;29;972;-77
2022/08/09 00:43:41;;;;;;;;;;;;;;;22.28;30.31;97871.00;4888160;29;951;-77
2022/08/09 00:46:08;;;;;;;;;;;;;;;22.23;30.51;97867.94;4914749;29;996;-77
2022/08/09 00:48:34;;;;;;;;;;;;;;;22.17;30.35;97870.53;4973860;28;1333;-77
2022/08/09 00:51:03;;;;;;;;;;;;;;;21.81;31.02;97871.59;4974266;28;930;-77
2022/08/09 00:53:29;;;;;;;;;;;;;;;22.10;30.47;97876.38;4954874;29;1902;-77
2022/08/09 00:55:55;;;;;;;;;;;;;;;22.02;30.91;97867.31;4938939;29;1055;-77
2022/08/09 00:58:20;;;;;;;;;;;;;;;22.12;30.53;97871.09;4939301;29;979;-77
2022/08/09 01:00:46;;;;;;;;;;;;;;;22.28;30.41;97871.00;4984874;28;932;-77
2022/08/09 01:03:12;;;;;;;;;;;;;;;22.01;30.63;97856.44;4955234;29;1012;-77
2022/08/09 01:05:49;;;;;;;;;;;;;;;22.04;30.98;97864.03;4954935;29;1004;-77
2022/08/09 01:08:30;;;;;;;;;;;;;;;22.25;30.38;97866.22;4900726;29;1074;-77
2022/08/09 01:11:01;;;;;;;;;;;;;;;22.03;30.71;97865.28;4916131;29;916;-77
2022/08/09 01:13:45;;;;;;;;;;;;;;;22.08;31.08;97856.22;4916943;29;1903;-77
2022/08/09 01:16:10;;;;;;;;;;;;;;;22.18;30.77;97863.63;4917025;29;1102;-77
2022/08/09 01:18:36;;;;;;;;;;;;;;;22.04;31.16;97855.53;4914850;29;969;-77
2022/08/09 01:21:16;;;;;;;;;;;;;;;21.91;30.99;97846.22;4898306;29;936;-77
2022/08/09 01:23:42;;;;;;;;;;;;;;;22.12;30.96;97845.59;4885661;29;952;-77
2022/08/09 01:26:13;;;;;;;;;;;;;;;22.14;31.27;97836.66;4927208;29;987;-77
2022/08/09 01:28:39;;;;;;;;;;;;;;;22.19;31.12;97839.72;4954648;29;955;-77
2022/08/09 01:31:04;;;;;;;;;;;;;;;22.32;30.75;97831.97;4923005;28;969;-77
2022/08/09 01:33:31;;;;;;;;;;;;;;;22.10;31.10;97822.56;4958914;28;1911;-77
2022/08/09 01:35:57;;;;;;;;;;;;;;;22.17;31.02;97819.50;4958121;28;1005;-77
2022/08/09 01:38:23;;;;;;;;;;;;;;;22.26;31.12;97802.63;4982315;28;1003;-77
2022/08/09 01:40:49;;;;;;;;;;;;;;;22.32;31.00;97802.84;5032938;28;1007;-77
2022/08/09 01:43:15;;;;;;;;;;;;;;;22.24;31.08;97810.00;4993231;28;1036;-77
2022/08/09 01:45:40;;;;;;;;;;;;;;;22.27;31.17;97803.41;4954720;29;1005;-77
2022/08/09 01:48:06;;;;;;;;;;;;;;;22.42;30.91;97798.06;4954882;29;1145;-77
2022/08/09 01:50:31;;;;;;;;;;;;;;;22.08;31.33;97800.34;4954641;29;1068;-77
2022/08/09 01:52:57;;;;;;;;;;;;;;;22.27;31.11;97795.69;4954590;29;1922;-77
2022/08/09 01:55:23;;;;;;;;;;;;;;;22.64;30.55;97796.13;4954848;29;916;-77
2022/08/09 01:57:50;;;;;;;;;;;;;;;22.47;30.75;97803.19;4935723;29;966;-77
2022/08/09 02:00:15;;;;;;;;;;;;;;;22.50;31.05;97790.94;4916107;29;1254;-77
2022/08/09 02:02:42;;;;;;;;;;;;;;;22.42;31.05;97789.56;4916792;29;976;-77
2022/08/09 02:05:08;;;;;;;;;;;;;;;22.23;31.27;97800.72;4917922;29;1011;-77
2022/08/09 02:07:34;;;;;;;;;;;;;;;22.18;31.46;97804.13;4901331;29;923;-77
2022/08/09 02:10:01;;;;;;;;;;;;;;;22.20;31.46;97787.44;4863279;29;1005;-77
2022/08/09 02:12:26;;;;;;;;;;;;;;;22.25;31.35;97798.22;4863845;29;912;-77
2022/08/09 02:14:53;;;;;;;;;;;;;;;22.27;31.72;97784.38;4910457;29;1895;-77
2022/08/09 02:17:20;;;;;;;;;;;;;;;22.26;31.45;97788.47;4900680;29;999;-77
2022/08/09 02:19:46;;;;;;;;;;;;;;;22.19;31.60;97804.91;4881798;29;1093;-77
2022/08/09 02:22:18;;;;;;;;;;;;;;;22.38;31.38;97800.22;4857242;29;949;-77
2022/08/09 02:24:44;;;;;;;;;;;;;;;22.21;31.24;97797.53;4881972;29;936;-77
2022/08/09 02:27:10;;;;;;;;;;;;;;;22.20;31.32;97803.66;4882098;29;1048;-77
2022/08/09 02:29:37;;;;;;;;;;;;;;;22.07;31.46;97803.63;4881828;29;1022;-77
2022/08/09 02:32:03;;;;;;;;;;;;;;;22.00;31.34;97809.50;4928646;29;1049;-77
2022/08/09 02:34:29;;;;;;;;;;;;;;;22.03;31.51;97822.78;4938091;29;1904;-77
2022/08/09 02:36:55;;;;;;;;;;;;;;;22.20;31.01;97818.63;4938339;29;941;-77
2022/08/09 02:39:26;;;;;;;;;;;;;;;22.26;31.29;97816.00;4938917;29;956;-77
2022/08/09 02:42:02;;;;;;;;;;;;;;;22.29;31.00;97821.56;4970901;28;1146;-77
2022/08/09 02:44:30;;;;;;;;;;;;;;;22.26;31.11;97827.34;4957227;28;961;-77
2022/08/09 02:46:55;;;;;;;;;;;;;;;22.45;30.91;97811.34;4941247;29;1032;-77
2022/08/09 02:49:21;;;;;;;;;;;;;;;22.42;30.92;97812.25;4937993;29;967;-77
2022/08/09 02:51:48;;;;;;;;;;;;;;;22.41;30.84;97816.34;4958043;28;949;-77
2022/08/09 02:54:14;;;;;;;;;;;;;;;22.20;31.67;97824.28;4982111;28;1985;-77
2022/08/09 02:56:41;;;;;;;;;;;;;;;22.10;31.39;97825.38;4963606;28;940;-77
2022/08/09 02:59:06;;;;;;;;;;;;;;;22.16;31.68;97834.94;4979848;28;1336;-78
2022/08/09 03:01:32;;;;;;;;;;;;;;;22.20;31.40;97834.84;4979886;28;1004;-77
2022/08/09 03:03:58;;;;;;;;;;;;;;;22.30;31.40;97834.50;4996234;28;967;-77
2022/08/09 03:06:23;;;;;;;;;;;;;;;22.20;31.24;97835.63;4979380;28;955;-77
2022/08/09 03:08:48;;;;;;;;;;;;;;;22.24;31.54;97841.97;4979771;28;960;-77
2022/08/09 03:11:15;;;;;;;;;;;;;;;22.05;31.57;97842.94;4979377;28;1404;-77
2022/08/09 03:13:40;;;;;;;;;;;;;;;22.29;31.41;97849.91;4979314;28;1902;-77
2022/08/09 03:16:06;;;;;;;;;;;;;;;22.34;31.04;97843.69;4971472;28;1022;-77
2022/08/09 03:18:31;;;;;;;;;;;;;;;22.22;31.42;97850.13;4960032;28;978;-77
2022/08/09 03:20:57;;;;;;;;;;;;;;;22.26;31.30;97858.53;4974426;28;1378;-77
2022/08/09 03:23:22;;;;;;;;;;;;;;;22.10;31.77;97859.38;4995451;28;1019;-77
2022/08/09 03:25:48;;;;;;;;;;;;;;;22.06;32.02;97870.03;4975918;28;972;-77
2022/08/09 03:28:13;;;;;;;;;;;;;;;22.11;31.75;97872.34;4975861;28;1018;-77
2022/08/09 03:30:39;;;;;;;;;;;;;;;22.20;31.41;97866.78;4975744;28;1000;-77
2022/08/09 03:33:05;;;;;;;;;;;;;;;22.14;31.47;97868.63;4956567;29;1986;-77
2022/08/09 03:35:31;;;;;;;;;;;;;;;22.03;31.44;97868.91;4956801;29;933;-77
2022/08/09 03:37:56;;;;;;;;;;;;;;;22.22;31.09;97867.13;4899286;29;1015;-77
2022/08/09 03:40:22;;;;;;;;;;;;;;;22.33;30.80;97861.94;4899211;29;987;-77
2022/08/09 03:42:47;;;;;;;;;;;;;;;22.26;31.05;97864.19;4899297;29;1025;-77
2022/08/09 03:45:12;;;;;;;;;;;;;;;22.13;31.10;97863.41;4899667;29;979;-77
2022/08/09 03:47:38;;;;;;;;;;;;;;;21.97;31.49;97859.38;4898864;29;1053;-77
2022/08/09 03:50:04;;;;;;;;;;;;;;;22.33;30.91;97861.16;4899328;29;975;-77
2022/08/09 03:52:30;;;;;;;;;;;;;;;22.09;31.17;97863.47;4901535;29;951;-77
2022/08/09 03:54:55;;;;;;;;;;;;;;;22.24;31.09;97861.03;4936938;29;1975;-77
2022/08/09 03:57:20;;;;;;;;;;;;;;;22.10;31.19;97859.38;4965043;28;1038;-77
2022/08/09 03:59:49;;;;;;;;;;;;;;;21.98;31.43;97863.00;4959101;28;976;-77
2022/08/09 04:02:14;;;;;;;;;;;;;;;22.16;31.25;97863.28;4959561;28;999;-78
2022/08/09 04:04:40;;;;;;;;;;;;;;;22.33;31.08;97859.09;4922516;29;979;-77
2022/08/09 04:07:05;;;;;;;;;;;;;;;22.32;31.13;97860.31;4902117;29;957;-78
2022/08/09 04:09:31;;;;;;;;;;;;;;;22.10;31.45;97859.38;4929561;29;973;-77
2022/08/09 04:12:09;;;;;;;;;;;;;;;22.36;30.85;97855.34;4956201;29;989;-77
2022/08/09 04:14:35;;;;;;;;;;;;;;;22.34;30.86;97859.91;4971431;28;1942;-77
2022/08/09 04:17:00;;;;;;;;;;;;;;;22.11;31.68;97861.00;4994678;28;874;-77
2022/08/09 04:19:26;;;;;;;;;;;;;;;22.32;31.13;97860.31;4978125;28;933;-77
2022/08/09 04:21:51;;;;;;;;;;;;;;;22.25;31.12;97860.56;4978329;28;955;-77
2022/08/09 04:24:16;;;;;;;;;;;;;;;22.51;30.99;97860.56;4975192;28;1052;-77
2022/08/09 04:26:42;;;;;;;;;;;;;;;22.38;31.04;97866.22;4974542;28;993;-77
2022/08/09 04:29:07;;;;;;;;;;;;;;;22.26;31.04;97867.81;4958542;28;929;-77
2022/08/09 04:31:33;;;;;;;;;;;;;;;22.21;31.24;97859.88;4975144;28;928;-77
2022/08/09 04:33:58;;;;;;;;;;;;;;;22.45;30.78;97868.06;4936354;29;1912;-77
2022/08/09 04:36:24;;;;;;;;;;;;;;;22.37;30.80;97878.81;4936224;29;919;-77
2022/08/09 04:38:50;;;;;;;;;;;;;;;22.36;30.74;97878.03;4936567;29;966;-77
2022/08/09 04:41:17;;;;;;;;;;;;;;;22.29;31.22;97872.59;4923235;28;915;-77
2022/08/09 04:43:42;;;;;;;;;;;;;;;22.44;30.47;97880.66;4938958;28;1156;-77
2022/08/09 04:46:10;;;;;;;;;;;;;;;22.13;31.28;97877.56;4955437;28;972;-77
2022/08/09 04:48:35;;;;;;;;;;;;;;;22.36;30.84;97889.38;4955362;29;1134;-77
2022/08/09 04:51:01;;;;;;;;;;;;;;;22.20;30.93;97886.63;4955489;29;969;-77
2022/08/09 04:53:26;;;;;;;;;;;;;;;22.43;30.62;97887.53;4916593;29;1911;-77
2022/08/09 04:55:52;;;;;;;;;;;;;;;22.22;30.70;97889.00;4916744;29;1007;-77
2022/08/09 04:58:17;;;;;;;;;;;;;;;22.30;30.79;97888.34;4916971;29;1025;-77
2022/08/09 05:00:42;;;;;;;;;;;;;;;22.35;30.53;97893.44;4937232;29;962;-77
2022/08/09 05:03:08;;;;;;;;;;;;;;;22.32;30.58;97883.00;4955409;29;943;-77
2022/08/09 05:05:33;;;;;;;;;;;;;;;22.32;30.65;97891.50;4969476;28;877;-77
2022/08/09 05:07:59;;;;;;;;;;;;;;;22.44;30.47;97889.16;4974935;28;1003;-77
2022/08/09 05:10:24;;;;;;;;;;;;;;;22.33;30.50;97890.28;4974292;28;980;-77
2022/08/09 05:12:50;;;;;;;;;;;;;;;22.12;30.83;97888.09;4958193;28;1017;-77
2022/08/09 05:15:15;;;;;;;;;;;;;;;22.33;30.76;97895.94;4954838;29;1974;-77
2022/08/09 05:17:41;;;;;;;;;;;;;;;22.20;30.69;97897.97;4954929;29;1072;-77
2022/08/09 05:20:08;;;;;;;;;;;;;;;22.32;30.56;97894.34;4954775;29;1073;-77
2022/08/09 05:22:33;;;;;;;;;;;;;;;22.26;30.71;97884.81;4954721;29;998;-77
2022/08/09 05:24:59;;;;;;;;;;;;;;;22.31;30.40;97887.09;4941307;29;969;-77
2022/08/09 05:27:24;;;;;;;;;;;;;;;22.16;30.78;97897.28;4963869;28;977;-77
2022/08/09 05:29:50;;;;;;;;;;;;;;;22.40;30.31;97889.25;4974311;28;975;-77
2022/08/09 05:32:15;;;;;;;;;;;;;;;22.16;30.79;97891.63;4960013;28;1041;-77
2022/08/09 05:34:41;;;;;;;;;;;;;;;22.51;29.99;97894.59;4973862;28;1895;-77
2022/08/09 05:37:06;;;;;;;;;;;;;;;22.25;30.31;97900.25;4974132;28;1034;-77
2022/08/09 05:39:34;;;;;;;;;;;;;;;22.32;30.58;97902.06;4977715;28;921;-77
2022/08/09 05:42:00;;;;;;;;;;;;;;;22.50;30.35;97895.84;4977595;28;1024;-77
2022/08/09 05:44:26;;;;;;;;;;;;;;;22.56;29.97;97902.53;4961765;28;986;-77
2022/08/09 05:46:52;;;;;;;;;;;;;;;22.50;30.06;97898.69;4992525;28;1070;-77
2022/08/09 05:49:17;;;;;;;;;;;;;;;22.48;30.30;97906.81;4996975;28;955;-77
2022/08/09 05:51:43;;;;;;;;;;;;;;;22.19;30.64;97899.22;4977746;28;1108;-77
2022/08/09 05:54:08;;;;;;;;;;;;;;;22.16;30.99;97900.13;4977801;28;1993;-77
2022/08/09 05:56:33;;;;;;;;;;;;;;;22.19;31.00;97899.22;4977955;28;905;-77
2022/08/09 05:58:59;;;;;;;;;;;;;;;22.31;30.96;97894.81;4977537;28;996;-77
2022/08/09 06:01:25;;;;;;;;;;;;;;;22.07;31.00;97897.94;4977755;28;1080;-77
2022/08/09 06:03:50;;;;;;;;;;;;;;;22.31;30.76;97891.97;4997037;28;1154;-77
2022/08/09 06:06:16;;;;;;;;;;;;;;;22.24;30.75;97898.66;5026504;28;1154;-77
2022/08/09 06:08:41;;;;;;;;;;;;;;;22.16;30.98;97896.50;5036376;28;919;-77
2022/08/09 06:11:07;;;;;;;;;;;;;;;22.31;31.13;97901.25;5036172;28;1034;-77
2022/08/09 06:13:32;;;;;;;;;;;;;;;22.35;30.67;97899.13;5036077;28;1967;-77
2022/08/09 06:15:58;;;;;;;;;;;;;;;22.42;30.77;97908.63;5036203;28;968;-77
2022/08/09 06:18:23;;;;;;;;;;;;;;;22.44;30.63;97901.28;5036191;28;1035;-77
2022/08/09 06:20:49;;;;;;;;;;;;;;;22.38;30.79;97899.44;5039442;28;1167;-77
2022/08/09 06:23:14;;;;;;;;;;;;;;;22.38;30.63;97907.94;5038421;28;1244;-77
2022/08/09 06:25:40;;;;;;;;;;;;;;;22.22;31.10;97911.69;5035997;28;972;-77
2022/08/09 06:28:06;;;;;;;;;;;;;;;22.25;30.99;97903.06;5035831;28;972;-77
2022/08/09 06:30:32;;;;;;;;;;;;;;;22.40;30.80;97911.16;5035904;28;1127;-77
2022/08/09 06:32:57;;;;;;;;;;;;;;;22.44;30.65;97917.50;5035592;28;1348;-77
2022/08/09 06:35:23;;;;;;;;;;;;;;;22.39;30.96;97915.22;5019216;28;1909;-77
2022/08/09 06:37:48;;;;;;;;;;;;;;;22.26;31.29;97901.81;5035538;28;954;-77
2022/08/09 06:40:14;;;;;;;;;;;;;;;22.28;30.95;97909.91;5037235;28;1035;-77
2022/08/09 06:42:39;;;;;;;;;;;;;;;22.35;31.28;97926.69;5058016;28;981;-77
2022/08/09 06:45:06;;;;;;;;;;;;;;;22.51;30.61;97920.91;5035777;28;919;-77
2022/08/09 06:47:31;;;;;;;;;;;;;;;22.25;31.29;97916.47;5018635;28;1092;-77
2022/08/09 06:49:56;;;;;;;;;;;;;;;22.47;30.86;97916.59;5034852;28;988;-77
2022/08/09 06:52:22;;;;;;;;;;;;;;;22.35;30.99;97923.84;5035670;28;985;-77
2022/08/09 06:54:47;;;;;;;;;;;;;;;22.32;31.03;97924.72;5035487;28;1914;-78
2022/08/09 06:57:13;;;;;;;;;;;;;;;22.18;31.45;97925.97;5015747;28;1229;-77
2022/08/09 06:59:39;;;;;;;;;;;;;;;22.31;31.16;97926.78;5015704;28;1054;-77
2022/08/09 07:02:04;;;;;;;;;;;;;;;22.32;31.06;97922.69;5015384;28;906;-77
2022/08/09 07:04:30;;;;;;;;;;;;;;;22.54;30.83;97916.38;5015383;28;955;-77
2022/08/09 07:06:55;;;;;;;;;;;;;;;22.46;30.53;97920.66;4998862;28;987;-78
2022/08/09 07:09:21;;;;;;;;;;;;;;;22.54;30.66;97922.03;5015564;28;947;-77
2022/08/09 07:11:46;;;;;;;;;;;;;;;22.39;30.74;97909.56;5015618;28;927;-77
2022/08/09 07:14:16;;;;;;;;;;;;;;;22.40;31.07;97916.81;5015091;28;1965;-77
2022/08/09 07:16:45;;;;;;;;;;;;;;;22.51;30.41;97917.28;5010132;28;920;-77
2022/08/09 07:19:11;;;;;;;;;;;;;;;22.49;30.68;97919.78;5015245;28;962;-77
2022/08/09 07:21:37;;;;;;;;;;;;;;;22.52;30.75;97916.00;5014353;28;1111;-77
2022/08/09 07:24:02;;;;;;;;;;;;;;;22.49;30.79;97926.25;5014577;28;1309;-77
2022/08/09 07:26:28;;;;;;;;;;;;;;;22.53;30.90;97920.44;5014481;28;1261;-76
2022/08/09 07:28:53;;;;;;;;;;;;;;;22.08;31.62;97919.34;5014929;28;1184;-76
2022/08/09 07:31:19;;;;;;;;;;;;;;;22.46;30.66;97904.44;5014600;28;1464;-76
2022/08/09 07:33:45;;;;;;;;;;;;;;;22.47;30.76;97916.59;5019781;28;1941;-76
2022/08/09 07:36:11;;;;;;;;;;;;;;;22.58;30.39;97912.16;5054408;28;1206;-76
2022/08/09 07:38:37;;;;;;;;;;;;;;;22.50;30.80;97915.69;5013724;28;1262;-76
2022/08/09 07:41:02;;;;;;;;;;;;;;;22.49;30.76;97914.09;5014844;28;971;-76
2022/08/09 07:43:28;;;;;;;;;;;;;;;22.67;30.46;97910.69;5014896;28;895;-76
2022/08/09 07:45:53;;;;;;;;;;;;;;;22.26;31.02;97929.38;4956597;28;945;-76
2022/08/09 07:48:19;;;;;;;;;;;;;;;22.42;31.10;97911.47;4970898;28;1266;-76
2022/08/09 07:50:44;;;;;;;;;;;;;;;22.55;30.64;97913.06;4943191;28;959;-76
2022/08/09 07:53:10;;;;;;;;;;;;;;;22.58;30.78;97917.81;4975368;28;1898;-76
2022/08/09 07:55:36;;;;;;;;;;;;;;;22.55;31.04;97917.97;4975153;28;911;-77
2022/08/09 07:58:02;;;;;;;;;;;;;;;22.52;31.06;97913.19;4975362;28;807;-78
2022/08/09 08:00:28;;;;;;;;;;;;;;;22.45;31.23;97930.44;4958365;28;934;-78
2022/08/09 08:02:55;;;;;;;;;;;;;;;22.49;30.99;97914.09;4975167;28;917;-77
2022/08/09 08:05:20;;;;;;;;;;;;;;;22.46;31.24;97912.16;4936242;29;1014;-78
2022/08/09 08:07:45;;;;;;;;;;;;;;;22.56;31.14;97903.31;4936910;29;919;-78
2022/08/09 08:10:11;;;;;;;;;;;;;;;22.60;31.09;97908.88;4965176;28;1064;-78
2022/08/09 08:12:37;;;;;;;;;;;;;;;22.48;31.22;97906.81;4975251;28;966;-78
2022/08/09 08:15:03;;;;;;;;;;;;;;;22.53;30.94;97909.88;4936789;29;1915;-77
2022/08/09 08:17:29;;;;;;;;;;;;;;;22.67;30.78;97914.31;4979439;28;974;-78
2022/08/09 08:19:54;;;;;;;;;;;;;;;22.67;30.92;97902.97;4962011;28;976;-78
2022/08/09 08:22:20;;;;;;;;;;;;;;;22.62;30.68;97909.22;4994325;28;921;-78
2022/08/09 08:24:46;;;;;;;;;;;;;;;22.50;30.95;97899.47;4994465;28;806;-77
2022/08/09 08:27:12;;;;;;;;;;;;;;;22.32;31.32;97916.22;4955229;29;883;-78
2022/08/09 08:29:37;;;;;;;;;;;;;;;22.46;30.87;97898.78;4955579;29;872;-78
2022/08/09 08:32:03;;;;;;;;;;;;;;;22.63;30.70;97913.63;4955477;29;871;-77
2022/08/09 08:34:28;;;;;;;;;;;;;;;22.52;31.07;97907.50;4955390;29;1907;-76
2022/08/09 08:36:54;;;;;;;;;;;;;;;22.64;30.60;97912.41;4947960;29;1267;-76
2022/08/09 08:39:19;;;;;;;;;;;;;;;22.58;30.65;97908.53;4904366;29;1031;-76
2022/08/09 08:41:45;;;;;;;;;;;;;;;22.71;30.50;97903.66;4937942;29;944;-76
2022/08/09 08:44:12;;;;;;;;;;;;;;;22.48;30.82;97904.00;4939681;29;951;-76
2022/08/09 08:46:38;;;;;;;;;;;;;;;22.57;30.51;97893.56;4999281;28;1235;-76
2022/08/09 08:49:04;;;;;;;;;;;;;;;22.81;30.21;97901.72;4974441;28;979;-76
2022/08/09 08:51:29;;;;;;;;;;;;;;;22.70;30.44;97898.44;4974889;28;875;-76
2022/08/09 08:53:55;;;;;;;;;;;;;;;22.35;31.08;97875.66;4954940;29;1983;-76
2022/08/09 08:56:20;;;;;;;;;;;;;;;22.67;30.38;97902.19;4955120;29;908;-76
2022/08/09 08:58:46;;;;;;;;;;;;;;;22.47;30.99;97899.56;4967522;28;1029;-76
2022/08/09 09:01:12;;;;;;;;;;;;;;;22.58;30.99;97905.69;4994063;28;951;-76
2022/08/09 09:03:37;;;;;;;;;;;;;;;22.53;30.68;97898.53;4994235;28;1421;-76
2022/08/09 09:06:04;;;;;;;;;;;;;;;22.61;30.68;97899.13;4993869;28;971;-76
2022/08/09 09:08:33;;;;;;;;;;;;;;;22.73;30.43;97895.47;4994110;28;1005;-76
2022/08/09 09:11:02;;;;;;;;;;;;;;;22.45;31.07;97896.41;4978273;28;1239;-76
2022/08/09 09:13:28;;;;;;;;;;;;;;;22.42;30.82;97900.94;4997280;28;1907;-76
2022/08/09 09:15:55;;;;;;;;;;;;;;;22.54;30.90;97893.69;4959094;29;950;-76
2022/08/09 09:18:20;;;;;;;;;;;;;;;22.44;31.11;97900.50;4943551;29;869;-76
2022/08/09 09:20:45;;;;;;;;;;;;;;;22.70;30.58;97890.72;4943776;29;927;-76
2022/08/09 09:23:11;;;;;;;;;;;;;;;22.71;30.34;97880.97;4955907;29;954;-76
2022/08/09 09:25:36;;;;;;;;;;;;;;;22.41;30.98;97890.06;4955070;29;931;-76
2022/08/09 09:28:02;;;;;;;;;;;;;;;22.45;30.97;97885.06;4959141;29;949;-76
2022/08/09 09:30:28;;;;;;;;;;;;;;;22.67;30.40;97885.94;4958796;29;926;-76
2022/08/09 09:33:03;;;;;;;;;;;;;;;22.65;30.40;97896.97;4920168;29;934;-76
2022/08/09 09:35:28;;;;;;;;;;;;;;;22.53;30.79;97877.91;4901481;29;1973;-76
2022/08/09 09:37:54;;;;;;;;;;;;;;;22.43;31.24;97879.81;4917301;29;970;-76
2022/08/09 09:40:19;;;;;;;;;;;;;;;22.69;30.58;97869.28;4901273;29;1092;-76
2022/08/09 09:42:54;;;;;;;;;;;;;;;22.72;30.57;97868.38;4932781;29;972;-76
2022/08/09 09:45:19;;;;;;;;;;;;;;;22.58;30.97;97872.44;4939172;29;1186;-76
2022/08/09 09:47:45;;;;;;;;;;;;;;;22.57;31.04;97879.38;4939082;29;1350;-76
2022/08/09 09:50:10;;;;;;;;;;;;;;;22.50;30.94;97873.94;4920083;29;1213;-76
2022/08/09 09:52:47;;;;;;;;;;;;;;;22.34;31.22;97874.84;4920176;29;961;-76
2022/08/09 09:55:14;;;;;;;;;;;;;;;22.59;31.02;97867.59;4920038;29;1973;-76
2022/08/09 09:57:39;;;;;;;;;;;;;;;22.43;31.01;97867.69;4919472;29;1185;-77
2022/08/09 10:00:05;;;;;;;;;;;;;;;22.64;30.37;97864.19;4919666;29;1233;-76
2022/08/09 10:02:43;;;;;;;;;;;;;;;22.26;31.46;97864.97;4919852;29;920;-76
2022/08/09 10:05:09;;;;;;;;;;;;;;;22.61;30.74;97845.25;4958010;28;1184;-76
2022/08/09 10:07:34;;;;;;;;;;;;;;;22.70;30.71;97853.84;4939644;29;994;-76
2022/08/09 10:10:00;;;;;;;;;;;;;;;22.71;30.74;97871.66;4926456;29;1034;-76
2022/08/09 10:12:33;;;;;;;;;;;;;;;22.65;30.47;97871.44;4918742;29;995;-76
2022/08/09 10:15:14;;;;;;;;;;;;;;;22.59;30.61;97859.09;4900093;29;1911;-76
2022/08/09 10:17:39;;;;;;;;;;;;;;;22.54;30.81;97859.66;4882498;29;959;-76
2022/08/09 10:20:06;;;;;;;;;;;;;;;22.60;30.96;97860.69;4896852;29;1161;-76
2022/08/09 10:22:34;;;;;;;;;;;;;;;22.65;30.63;97845.13;4904387;29;1360;-76
2022/08/09 10:25:00;;;;;;;;;;;;;;;22.49;30.81;97868.75;4924140;29;1329;-76
2022/08/09 10:27:25;;;;;;;;;;;;;;;22.63;30.60;97874.72;4910733;29;1046;-76
2022/08/09 10:29:51;;;;;;;;;;;;;;;22.51;30.80;97852.06;4930032;29;1299;-76
2022/08/09 10:32:16;;;;;;;;;;;;;;;22.51;31.01;97860.56;4927826;29;1280;-76
2022/08/09 10:34:42;;;;;;;;;;;;;;;22.49;31.01;97854.56;4945833;29;1906;-76
2022/08/09 10:37:07;;;;;;;;;;;;;;;22.73;30.34;97854.97;4950548;29;1263;-76
2022/08/09 10:39:33;;;;;;;;;;;;;;;22.51;30.86;97860.56;4951430;29;1172;-76
2022/08/09 10:41:58;;;;;;;;;;;;;;;22.50;30.65;97864.66;4955072;29;1239;-76
2022/08/09 10:44:24;;;;;;;;;;;;;;;22.47;30.87;97862.72;4974211;28;1200;-76
2022/08/09 10:47:04;;;;;;;;;;;;;;;22.59;30.65;97861.94;4937291;29;1256;-76
2022/08/09 10:49:48;;;;;;;;;;;;;;;22.60;30.91;97846.50;4914306;29;1248;-77
2022/08/09 10:52:20;;;;;;;;;;;;;;;22.55;30.84;97855.56;4919024;29;1193;-76
2022/08/09 10:54:47;;;;;;;;;;;;;;;22.84;30.45;97847.69;4919279;29;1902;-76
2022/08/09 10:57:13;;;;;;;;;;;;;;;22.65;30.50;97853.63;4953595;29;1046;-76
2022/08/09 10:59:39;;;;;;;;;;;;;;;22.76;30.59;97843.50;4925325;29;975;-76
2022/08/09 11:02:05;;;;;;;;;;;;;;;22.58;30.86;97843.31;5018541;28;1172;-76
2022/08/09 11:04:30;;;;;;;;;;;;;;;22.58;31.03;97844.09;5002495;28;1058;-76
2022/08/09 11:06:58;;;;;;;;;;;;;;;22.59;31.08;97844.91;4996126;28;973;-76
2022/08/09 11:09:50;;;;;;;;;;;;;;;22.47;31.16;97837.19;4995983;28;1079;-76
2022/08/09 11:12:15;;;;;;;;;;;;;;;22.44;30.95;97832.44;4999612;28;930;-76
2022/08/09 11:14:43;;;;;;;;;;;;;;;22.58;31.02;97840.47;5015234;28;1973;-76
2022/08/09 11:17:14;;;;;;;;;;;;;;;22.74;30.69;97829.00;4956869;28;991;-76
2022/08/09 11:20:02;;;;;;;;;;;;;;;22.60;30.75;97820.97;4956853;28;915;-76
2022/08/09 11:22:39;;;;;;;;;;;;;;;22.44;30.98;97844.59;4918733;29;1069;-76
2022/08/09 11:25:06;;;;;;;;;;;;;;;22.56;30.82;97829.59;4918622;29;1056;-76
2022/08/09 11:27:31;;;;;;;;;;;;;;;22.74;30.71;97846.03;4914181;29;1279;-76
2022/08/09 11:29:57;;;;;;;;;;;;;;;22.70;30.80;97831.16;4910062;29;1267;-76
2022/08/09 11:32:41;;;;;;;;;;;;;;;22.72;30.60;97831.50;4913373;29;1225;-76
2022/08/09 11:35:09;;;;;;;;;;;;;;;22.83;30.26;97843.25;4915540;29;2005;-76
2022/08/09 11:37:34;;;;;;;;;;;;;;;22.58;30.82;97838.41;4908833;29;1220;-77
2022/08/09 11:40:02;;;;;;;;;;;;;;;22.65;30.79;97828.91;4916717;29;1497;-76
2022/08/09 11:42:46;;;;;;;;;;;;;;;22.65;30.74;97836.63;4917604;29;1178;-77
2022/08/09 11:45:31;;;;;;;;;;;;;;;22.52;30.91;97839.47;4896416;29;1107;-76
2022/08/09 11:47:57;;;;;;;;;;;;;;;22.73;30.40;97832.28;4918928;29;1186;-76
2022/08/09 11:50:22;;;;;;;;;;;;;;;22.71;30.59;97829.91;4955724;29;1187;-76
2022/08/09 11:52:57;;;;;;;;;;;;;;;22.76;30.56;97831.38;4935934;29;1255;-76
2022/08/09 11:55:38;;;;;;;;;;;;;;;22.68;30.79;97825.13;4901641;29;1907;-77
2022/08/09 11:58:27;;;;;;;;;;;;;;;22.59;30.69;97833.56;4911007;29;1328;-76
2022/08/09 12:00:59;;;;;;;;;;;;;;;22.67;30.51;97834.91;4898482;29;1361;-76
2022/08/09 12:03:25;;;;;;;;;;;;;;;22.64;30.62;97830.16;4898158;29;1233;-76
2022/08/09 12:05:52;;;;;;;;;;;;;;;22.49;31.14;97823.38;4935995;29;1315;-76
2022/08/09 12:08:17;;;;;;;;;;;;;;;22.74;30.26;97823.34;4936322;29;1320;-76
2022/08/09 12:10:46;;;;;;;;;;;;;;;22.86;30.02;97819.66;4936356;29;1209;-76
2022/08/09 12:13:11;;;;;;;;;;;;;;;22.85;29.94;97820.91;4913019;29;1177;-77
2022/08/09 12:15:37;;;;;;;;;;;;;;;22.80;30.14;97810.16;4918873;29;1991;-77
2022/08/09 12:18:02;;;;;;;;;;;;;;;22.54;30.72;97808.63;4943570;29;1238;-77
2022/08/09 12:20:29;;;;;;;;;;;;;;;22.65;30.49;97814.72;4944127;29;1369;-77
2022/08/09 12:22:59;;;;;;;;;;;;;;;22.70;30.33;97805.63;4947374;28;1345;-77
2022/08/09 12:25:24;;;;;;;;;;;;;;;22.41;31.16;97810.66;4976127;28;1293;-77
2022/08/09 12:28:09;;;;;;;;;;;;;;;22.57;30.36;97808.47;4993850;28;1267;-76
2022/08/09 12:30:34;;;;;;;;;;;;;;;22.57;30.29;97802.03;4994055;28;1275;-77
2022/08/09 12:33:00;;;;;;;;;;;;;;;22.69;30.15;97809.72;4955070;28;1560;-77
2022/08/09 12:35:26;;;;;;;;;;;;;;;22.52;30.68;97800.56;4972928;28;1918;-77
2022/08/09 12:37:51;;;;;;;;;;;;;;;22.64;30.49;97801.81;4974418;28;1413;-77
2022/08/09 12:40:17;;;;;;;;;;;;;;;22.67;30.33;97802.91;4975273;28;915;-77
2022/08/09 12:42:43;;;;;;;;;;;;;;;22.65;30.38;97797.72;4979654;28;1035;-77
2022/08/09 12:45:08;;;;;;;;;;;;;;;22.63;30.40;97811.53;4974325;28;1004;-76
2022/08/09 12:47:34;;;;;;;;;;;;;;;22.51;30.53;97803.84;4979408;28;1170;-77
2022/08/09 12:50:17;;;;;;;;;;;;;;;22.68;30.15;97802.44;4982478;28;1065;-76
2022/08/09 12:52:43;;;;;;;;;;;;;;;22.73;30.05;97793.38;4985380;28;1190;-76
2022/08/09 12:55:09;;;;;;;;;;;;;;;22.63;30.41;97786.00;4985437;28;1977;-76
2022/08/09 12:57:44;;;;;;;;;;;;;;;22.81;30.20;97796.75;4983288;28;1216;-76
2022/08/09 13:00:16;;;;;;;;;;;;;;;22.64;30.12;97790.47;4947985;28;1255;-76